Time;durP1;ratioP1;P1;durP2;ratioP2;P2;SDS_P1;SDS_P2;PMS_P1;PMS_P2;Temp;Humidity;BMP_temperature;BMP_pressure;BME280_temperature;BME280_humidity;BME280_pressure;Samples;Min_cycle;Max_cycle;Signal;HPM_P1;HPM_P2
2024/04/02 00:01:58;;;;;;;18.13;17.05;;;;;;;;;;4967810;28;20080;-94
2024/04/02 00:04:26;;;;;;;17.70;16.67;;;;;;;;;;4980309;28;20057;-92
2024/04/02 00:06:53;;;;;;;21.13;19.90;;;;;;;;;;4979610;28;20042;-94
2024/04/02 00:09:19;;;;;;;19.35;18.33;;;;;;;;;;4980385;28;20034;-92
2024/04/02 00:11:46;;;;;;;28.73;27.20;;;;;;;;;;4980393;28;20109;-93
2024/04/02 00:14:12;;;;;;;26.58;25.17;;;;;;;;;;4980427;28;20030;-94
2024/04/02 00:16:38;;;;;;;25.73;24.17;;;;;;;;;;4981150;28;20030;-92
2024/04/02 00:19:04;;;;;;;35.47;33.33;;;;;;;;;;4980148;28;20026;-93
2024/04/02 00:21:30;;;;;;;26.15;24.75;;;;;;;;;;4980036;28;20037;-94
2024/04/02 00:23:56;;;;;;;35.75;33.80;;;;;;;;;;4979926;28;20494;-91
2024/04/02 00:26:22;;;;;;;41.67;39.45;;;;;;;;;;4979873;28;20031;-94
2024/04/02 00:28:51;;;;;;;28.58;27.02;;;;;;;;;;4979714;28;20027;-93
2024/04/02 00:31:18;;;;;;;34.45;32.45;;;;;;;;;;4979566;28;20097;-93
2024/04/02 00:33:47;;;;;;;42.78;40.40;;;;;;;;;;4979901;28;20029;-92
2024/04/02 00:36:14;;;;;;;24.83;23.40;;;;;;;;;;4979722;28;20065;-93
2024/04/02 00:38:40;;;;;;;27.67;26.20;;;;;;;;;;4979942;28;20058;-92
2024/04/02 00:41:06;;;;;;;29.17;27.45;;;;;;;;;;4980089;28;20019;-93
2024/04/02 00:43:32;;;;;;;31.25;29.52;;;;;;;;;;4997943;28;20086;-93
2024/04/02 00:45:58;;;;;;;36.05;34.08;;;;;;;;;;4981098;28;20048;-93
2024/04/02 00:48:24;;;;;;;23.13;21.85;;;;;;;;;;4979690;28;20033;-93
2024/04/02 00:50:51;;;;;;;31.48;29.73;;;;;;;;;;4998072;28;20089;-93
2024/04/02 00:53:19;;;;;;;28.15;26.65;;;;;;;;;;5000475;28;20030;-93
2024/04/02 00:55:45;;;;;;;32.38;30.58;;;;;;;;;;4982872;28;20029;-94
2024/04/02 00:58:11;;;;;;;29.08;27.52;;;;;;;;;;4981069;28;20113;-93
2024/04/02 01:00:40;;;;;;;35.50;33.63;;;;;;;;;;4979234;28;20113;-92
2024/04/02 01:03:06;;;;;;;38.72;36.65;;;;;;;;;;4979348;28;20359;-93
2024/04/02 01:05:33;;;;;;;23.23;21.88;;;;;;;;;;4980337;28;20474;-93
2024/04/02 01:08:02;;;;;;;24.33;22.92;;;;;;;;;;4979069;28;20080;-93
2024/04/02 01:10:29;;;;;;;25.38;23.98;;;;;;;;;;4978916;28;20042;-91
2024/04/02 01:12:55;;;;;;;53.30;50.47;;;;;;;;;;4979250;28;20026;-92
2024/04/02 01:15:22;;;;;;;26.20;24.77;;;;;;;;;;4979009;28;20030;-93
2024/04/02 01:17:49;;;;;;;26.25;24.85;;;;;;;;;;4940204;29;20090;-93
2024/04/02 01:20:15;;;;;;;26.13;24.73;;;;;;;;;;4953491;28;20034;-94
2024/04/02 01:22:41;;;;;;;53.28;50.40;;;;;;;;;;4978828;28;20022;-94
2024/04/02 01:25:09;;;;;;;48.25;45.70;;;;;;;;;;4978789;28;20479;-92
2024/04/02 01:27:38;;;;;;;39.03;36.83;;;;;;;;;;4979703;28;20029;-93
2024/04/02 01:30:04;;;;;;;34.90;33.00;;;;;;;;;;4978788;28;20559;-92
2024/04/02 01:32:33;;;;;;;52.22;49.42;;;;;;;;;;4978843;28;20077;-94
2024/04/02 01:35:00;;;;;;;50.80;47.65;;;;;;;;;;4978217;28;20482;-93
2024/04/02 01:37:27;;;;;;;65.18;61.63;;;;;;;;;;4978995;28;20037;-93
2024/04/02 01:39:53;;;;;;;59.63;56.42;;;;;;;;;;4978463;28;20061;-93
2024/04/02 01:42:19;;;;;;;32.80;31.08;;;;;;;;;;4978403;28;20018;-94
2024/04/02 01:44:46;;;;;;;22.60;21.30;;;;;;;;;;4978355;28;20034;-93
2024/04/02 01:47:12;;;;;;;41.53;39.28;;;;;;;;;;4978335;28;20019;-92
2024/04/02 01:49:38;;;;;;;35.90;33.75;;;;;;;;;;4978105;28;20479;-93
2024/04/02 01:52:04;;;;;;;31.38;29.67;;;;;;;;;;4978197;28;20034;-93
2024/04/02 01:54:30;;;;;;;40.88;38.53;;;;;;;;;;4978276;28;20152;-94
2024/04/02 01:56:57;;;;;;;48.28;45.67;;;;;;;;;;4978319;28;20117;-93
2024/04/02 01:59:23;;;;;;;47.50;44.80;;;;;;;;;;4977863;28;20054;-94
2024/04/02 02:01:50;;;;;;;40.53;38.28;;;;;;;;;;4978128;28;20502;-93
2024/04/02 02:04:49;;;;;;;58.17;54.97;;;;;;;;;;4978082;28;20034;-93
2024/04/02 02:07:14;;;;;;;37.00;35.00;;;;;;;;;;4992269;28;20023;-92
2024/04/02 02:09:44;;;;;;;80.30;76.03;;;;;;;;;;4978126;28;20026;-93
2024/04/02 02:12:10;;;;;;;39.97;37.75;;;;;;;;;;4977892;28;20042;-92
2024/04/02 02:14:36;;;;;;;30.05;28.42;;;;;;;;;;4978048;28;20077;-93
2024/04/02 02:17:02;;;;;;;79.38;75.13;;;;;;;;;;4977941;28;20034;-92
2024/04/02 02:19:34;;;;;;;43.80;41.42;;;;;;;;;;4978051;28;20467;-92
2024/04/02 02:22:01;;;;;;;50.85;48.10;;;;;;;;;;4977976;28;20022;-92
2024/04/02 02:24:36;;;;;;;81.53;77.03;;;;;;;;;;4984338;28;20054;-92
2024/04/02 02:27:05;;;;;;;45.95;43.40;;;;;;;;;;4962785;28;20049;-95
2024/04/02 02:29:46;;;;;;;37.78;35.72;;;;;;;;;;4977506;28;20080;-93
2024/04/02 02:32:12;;;;;;;47.85;45.20;;;;;;;;;;4977768;28;20036;-92
2024/04/02 02:34:45;;;;;;;49.40;46.67;;;;;;;;;;4977459;28;20498;-92
2024/04/02 02:37:12;;;;;;;78.75;74.57;;;;;;;;;;4977699;28;20084;-92
2024/04/02 02:39:38;;;;;;;58.03;54.88;;;;;;;;;;4977582;28;20030;-92
2024/04/02 02:42:04;;;;;;;33.47;31.67;;;;;;;;;;4977363;28;20034;-93
2024/04/02 02:44:31;;;;;;;42.83;40.50;;;;;;;;;;4994610;28;20150;-93
2024/04/02 02:46:59;;;;;;;38.47;36.33;;;;;;;;;;4977495;28;20034;-92
2024/04/02 02:49:26;;;;;;;59.60;56.38;;;;;;;;;;4977826;28;20031;-91
2024/04/02 02:51:52;;;;;;;81.22;76.93;;;;;;;;;;4977189;28;20550;-93
2024/04/02 02:54:18;;;;;;;67.78;64.18;;;;;;;;;;4977492;28;20036;-93
2024/04/02 02:56:44;;;;;;;58.65;55.47;;;;;;;;;;4977358;28;20034;-92
2024/04/02 03:02:14;;;;;;;89.37;84.67;;;;;;;;;;4975699;28;20037;-92
2024/04/02 03:04:40;;;;;;;49.38;46.67;;;;;;;;;;4958318;28;20026;-93
2024/04/02 03:07:07;;;;;;;90.63;85.85;;;;;;;;;;4957989;28;20494;-93
2024/04/02 03:09:36;;;;;;;43.75;41.28;;;;;;;;;;4957718;28;20035;-93
2024/04/02 03:12:03;;;;;;;72.03;68.20;;;;;;;;;;4958313;28;20121;-93
2024/04/02 03:14:32;;;;;;;36.55;34.50;;;;;;;;;;4957981;28;20479;-92
2024/04/02 03:16:58;;;;;;;41.33;38.97;;;;;;;;;;4958595;28;20097;-93
2024/04/02 03:19:24;;;;;;;55.55;52.50;;;;;;;;;;4957842;28;20534;-93
2024/04/02 03:21:53;;;;;;;53.00;50.13;;;;;;;;;;4957810;28;20064;-92
2024/04/02 03:24:28;;;;;;;56.35;53.35;;;;;;;;;;4942454;28;20062;-93
2024/04/02 03:26:54;;;;;;;67.45;63.83;;;;;;;;;;4958119;28;20034;-94
2024/04/02 03:29:21;;;;;;;51.28;48.53;;;;;;;;;;4957703;28;20054;-93
2024/04/02 03:31:50;;;;;;;45.40;42.97;;;;;;;;;;4957715;28;20050;-93
2024/04/02 03:34:17;;;;;;;36.72;34.65;;;;;;;;;;4957847;28;20046;-92
2024/04/02 03:36:43;;;;;;;39.65;37.45;;;;;;;;;;4957770;28;20030;-93
2024/04/02 03:39:10;;;;;;;57.63;54.47;;;;;;;;;;4957975;28;20019;-94
2024/04/02 03:41:36;;;;;;;62.92;59.40;;;;;;;;;;4959513;28;20188;-92
2024/04/02 03:44:02;;;;;;;49.88;47.20;;;;;;;;;;4961136;28;20030;-94
2024/04/02 03:46:34;;;;;;;72.30;68.35;;;;;;;;;;4961185;28;20103;-94
2024/04/02 03:49:00;;;;;;;69.25;65.53;;;;;;;;;;4945771;28;20026;-93
2024/04/02 03:51:26;;;;;;;35.25;33.20;;;;;;;;;;4973276;28;20022;-92
2024/04/02 03:53:52;;;;;;;29.33;27.67;;;;;;;;;;4985079;28;20086;-92
2024/04/02 03:56:18;;;;;;;61.17;57.80;;;;;;;;;;4968100;28;20053;-94
2024/04/02 03:58:53;;;;;;;32.95;31.15;;;;;;;;;;4971150;28;20087;-92
2024/04/02 04:01:23;;;;;;;45.72;43.20;;;;;;;;;;4980925;28;20084;-93
2024/04/02 04:03:49;;;;;;;67.03;63.40;;;;;;;;;;4980646;28;20026;-93
2024/04/02 04:06:15;;;;;;;51.70;48.92;;;;;;;;;;4987718;28;20045;-93
2024/04/02 04:08:41;;;;;;;52.00;49.20;;;;;;;;;;4995387;28;20569;-93
2024/04/02 04:11:08;;;;;;;62.63;59.28;;;;;;;;;;4980811;28;20133;-93
2024/04/02 04:13:34;;;;;;;31.33;29.63;;;;;;;;;;4980043;28;20062;-93
2024/04/02 04:16:02;;;;;;;65.53;61.92;;;;;;;;;;4980321;28;20495;-93
2024/04/02 04:18:29;;;;;;;65.80;62.20;;;;;;;;;;4979947;28;20510;-93
2024/04/02 04:20:56;;;;;;;80.45;76.18;;;;;;;;;;4979933;28;20023;-93
2024/04/02 04:23:22;;;;;;;41.65;39.42;;;;;;;;;;4979790;28;20113;-91
2024/04/02 04:26:01;;;;;;;57.65;54.50;;;;;;;;;;4980132;28;20061;-92
2024/04/02 04:28:31;;;;;;;64.13;60.63;;;;;;;;;;4983484;28;20471;-93
2024/04/02 04:30:58;;;;;;;93.95;89.15;;;;;;;;;;4980955;28;20545;-91
2024/04/02 04:33:27;;;;;;;72.18;68.32;;;;;;;;;;4986738;23;20059;-92
2024/04/02 04:35:55;;;;;;;92.97;88.15;;;;;;;;;;4939945;29;20118;-92
2024/04/02 04:38:23;;;;;;;64.22;60.83;;;;;;;;;;4941302;29;20039;-94
2024/04/02 04:40:49;;;;;;;64.78;61.28;;;;;;;;;;4941072;29;20032;-92
2024/04/02 04:43:16;;;;;;;64.65;61.05;;;;;;;;;;4941233;29;20031;-92
2024/04/02 04:45:52;;;;;;;66.10;62.63;;;;;;;;;;4951222;28;20080;-96
2024/04/02 04:48:19;;;;;;;55.50;52.53;;;;;;;;;;4961948;28;20027;-94
2024/04/02 04:51:01;;;;;;;73.35;69.50;;;;;;;;;;4946224;28;20072;-92
2024/04/02 04:53:28;;;;;;;66.03;62.55;;;;;;;;;;4960026;28;20031;-95
2024/04/02 04:56:07;;;;;;;82.38;78.13;;;;;;;;;;4960440;28;20062;-96
2024/04/02 04:58:36;;;;;;;63.80;60.47;;;;;;;;;;4960617;28;20090;-95
2024/04/02 05:01:03;;;;;;;56.50;53.30;;;;;;;;;;4960228;28;20026;-95
2024/04/02 05:03:29;;;;;;;77.25;73.13;;;;;;;;;;4962122;28;20073;-93
2024/04/02 05:06:04;;;;;;;64.28;60.88;;;;;;;;;;4961997;28;20094;-96
2024/04/02 05:08:33;;;;;;;70.28;66.63;;;;;;;;;;4960055;28;20031;-94
2024/04/02 05:17:10;;;;;;;56.83;53.65;;;;;;;;;;4976745;28;20093;-94
2024/04/02 05:19:36;;;;;;;81.60;77.40;;;;;;;;;;4959884;28;20034;-94
2024/04/02 05:22:05;;;;;;;65.30;61.88;;;;;;;;;;4960162;28;20027;-93
2024/04/02 05:24:31;;;;;;;80.68;76.45;;;;;;;;;;4977726;28;20027;-93
2024/04/02 05:26:57;;;;;;;54.92;52.03;;;;;;;;;;4961125;28;20023;-93
2024/04/02 05:29:23;;;;;;;66.15;62.78;;;;;;;;;;4959875;28;20030;-93
2024/04/02 05:31:49;;;;;;;73.22;69.47;;;;;;;;;;4961049;28;20165;-94
2024/04/02 05:34:15;;;;;;;69.75;66.10;;;;;;;;;;4959471;28;20173;-95
2024/04/02 05:36:42;;;;;;;76.63;72.65;;;;;;;;;;4959743;28;20081;-93
2024/04/02 05:39:08;;;;;;;79.78;75.68;;;;;;;;;;4959794;28;20027;-96
2024/04/02 05:41:34;;;;;;;64.15;60.85;;;;;;;;;;4958960;28;20030;-95
2024/04/02 05:44:00;;;;;;;62.63;59.35;;;;;;;;;;4959029;28;20023;-95
2024/04/02 05:46:27;;;;;;;53.05;50.30;;;;;;;;;;4959507;28;20074;-95
2024/04/02 05:48:53;;;;;;;59.50;56.38;;;;;;;;;;4954346;28;20062;-94
2024/04/02 05:51:19;;;;;;;78.07;74.00;;;;;;;;;;4944144;29;20035;-95
2024/04/02 05:53:45;;;;;;;58.05;55.03;;;;;;;;;;4940048;29;20117;-94
2024/04/02 05:56:13;;;;;;;71.80;68.00;;;;;;;;;;4941289;29;20028;-94
2024/04/02 05:58:39;;;;;;;61.95;58.75;;;;;;;;;;4940599;29;20031;-95
2024/04/02 06:01:06;;;;;;;64.55;61.22;;;;;;;;;;4941535;29;20035;-95
2024/04/02 06:03:32;;;;;;;73.15;69.30;;;;;;;;;;4940210;29;20062;-95
2024/04/02 06:05:59;;;;;;;57.05;53.92;;;;;;;;;;4940841;29;20065;-95
2024/04/02 06:08:33;;;;;;;57.72;54.67;;;;;;;;;;4940901;29;20098;-95
2024/04/02 06:11:04;;;;;;;65.88;62.47;;;;;;;;;;4958600;29;20039;-94
2024/04/02 06:13:38;;;;;;;57.92;54.83;;;;;;;;;;4940016;29;20030;-96
2024/04/02 06:16:05;;;;;;;;;;;;;;;;;;4955292;28;20030;-95
2024/04/02 06:18:31;;;;;;;51.22;48.58;;;;;;;;;;5001415;23;19928;-95
2024/04/02 06:21:00;;;;;;;46.55;44.03;;;;;;;;;;4961979;28;20030;-94
2024/04/02 06:23:26;;;;;;;45.15;42.78;;;;;;;;;;4958709;28;20471;-94
2024/04/02 06:25:52;;;;;;;46.47;44.08;;;;;;;;;;4978709;28;20076;-95
2024/04/02 06:28:19;;;;;;;53.45;50.00;;;;;;;;;;4978161;28;20084;-94
2024/04/02 06:30:45;;;;;;;53.15;50.40;;;;;;;;;;4977922;28;20042;-95
2024/04/02 06:36:29;;;;;;;43.80;41.45;;;;;;;;;;4994924;28;20072;-95
2024/04/02 06:38:56;;;;;;;43.42;41.15;;;;;;;;;;4977905;28;20372;-92
2024/04/02 06:41:22;;;;;;;49.88;46.92;;;;;;;;;;4980416;28;20050;-93
2024/04/02 06:43:48;;;;;;;57.60;54.45;;;;;;;;;;4997320;28;20034;-94
2024/04/02 06:46:14;;;;;;;53.10;50.25;;;;;;;;;;4983049;28;20031;-94
2024/04/02 06:48:43;;;;;;;42.00;39.72;;;;;;;;;;4985383;28;20109;-94
2024/04/02 06:51:11;;;;;;;48.42;45.63;;;;;;;;;;4998671;28;20507;-92
2024/04/02 06:53:37;;;;;;;50.20;47.50;;;;;;;;;;4978676;28;20066;-90
2024/04/02 06:56:05;;;;;;;54.33;51.40;;;;;;;;;;4977749;28;20026;-91
2024/04/02 06:58:31;;;;;;;51.33;48.42;;;;;;;;;;4977676;28;20035;-93
2024/04/02 07:00:57;;;;;;;46.92;44.38;;;;;;;;;;4977639;28;20026;-93
2024/04/02 07:03:23;;;;;;;51.45;48.67;;;;;;;;;;5002855;23;20047;-92
2024/04/02 07:06:24;;;;;;;55.83;52.55;;;;;;;;;;4957632;28;20034;-93
2024/04/02 07:09:29;;;;;;;;;;;;;;;;;;;;;
2024/04/02 07:11:56;;;;;;;46.83;44.30;;;;;;;;;;4990252;28;20151;-90
2024/04/02 07:14:22;;;;;;;52.40;49.50;;;;;;;;;;4984420;28;20026;-95
2024/04/02 07:16:53;;;;;;;40.55;38.10;;;;;;;;;;4992520;28;20030;-95
2024/04/02 07:19:22;;;;;;;50.20;47.33;;;;;;;;;;4984712;28;20022;-96
2024/04/02 07:21:50;;;;;;;45.58;43.10;;;;;;;;;;4983174;28;20035;-91
2024/04/02 07:24:16;;;;;;;54.58;51.70;;;;;;;;;;4982005;28;20467;-91
2024/04/02 07:26:42;;;;;;;43.15;40.63;;;;;;;;;;4981189;28;20030;-93
2024/04/02 07:29:09;;;;;;;56.75;53.70;;;;;;;;;;4981063;28;20512;-91
2024/04/02 07:31:35;;;;;;;41.75;39.42;;;;;;;;;;4980768;28;20117;-92
2024/04/02 07:34:01;;;;;;;58.50;55.38;;;;;;;;;;4981031;28;20545;-93
2024/04/02 07:36:27;;;;;;;49.83;47.10;;;;;;;;;;4980967;28;20118;-94
2024/04/02 07:38:53;;;;;;;66.85;63.03;;;;;;;;;;4981145;28;20058;-93
2024/04/02 07:41:20;;;;;;;55.72;52.75;;;;;;;;;;4981803;28;20038;-91
2024/04/02 07:43:46;;;;;;;71.10;67.30;;;;;;;;;;4981171;28;20441;-92
2024/04/02 07:46:12;;;;;;;90.57;85.70;;;;;;;;;;4981814;28;20089;-93
2024/04/02 07:48:38;;;;;;;86.82;82.15;;;;;;;;;;4980896;28;20034;-91
2024/04/02 07:51:11;;;;;;;63.75;60.35;;;;;;;;;;4980648;28;20034;-93
2024/04/02 07:53:37;;;;;;;82.67;78.17;;;;;;;;;;4981222;28;20072;-93
2024/04/02 07:56:03;;;;;;;82.15;77.85;;;;;;;;;;4980881;28;20269;-94
2024/04/02 08:01:05;;;;;;;71.03;67.20;;;;;;;;;;5255000;23;19969;-94
2024/04/02 08:03:31;;;;;;;55.10;51.90;;;;;;;;;;4961969;28;20050;-95
2024/04/02 08:05:58;;;;;;;68.35;64.57;;;;;;;;;;4969229;28;20034;-94
2024/04/02 08:08:25;;;;;;;62.97;58.95;;;;;;;;;;4981352;28;20023;-93
2024/04/02 08:10:51;;;;;;;64.57;61.08;;;;;;;;;;4980497;28;20509;-93
2024/04/02 08:13:17;;;;;;;50.97;48.28;;;;;;;;;;4980246;28;20121;-92
2024/04/02 08:15:43;;;;;;;46.17;43.70;;;;;;;;;;4980447;28;20027;-93
2024/04/02 08:18:09;;;;;;;33.17;31.27;;;;;;;;;;4984226;28;20026;-92
2024/04/02 08:20:36;;;;;;;32.75;30.88;;;;;;;;;;4980368;28;20399;-94
2024/04/02 08:23:04;;;;;;;27.15;25.50;;;;;;;;;;4985380;28;20018;-91
2024/04/02 08:25:30;;;;;;;25.92;24.42;;;;;;;;;;4997038;28;20034;-94
2024/04/02 08:27:57;;;;;;;22.23;20.98;;;;;;;;;;4991383;28;20017;-93
2024/04/02 08:30:23;;;;;;;20.05;18.85;;;;;;;;;;5003231;28;20030;-95
2024/04/02 08:32:49;;;;;;;24.90;23.50;;;;;;;;;;4994901;28;20019;-93
2024/04/02 08:35:33;;;;;;;18.13;17.03;;;;;;;;;;5111977;23;20180;-95
2024/04/02 08:37:59;;;;;;;22.63;21.25;;;;;;;;;;4946613;28;20043;-95
2024/04/02 08:40:32;;;;;;;23.30;22.00;;;;;;;;;;4963691;28;20061;-96
2024/04/02 08:43:05;;;;;;;22.63;21.33;;;;;;;;;;4961272;28;20182;-92
2024/04/02 08:48:52;;;;;;;21.83;20.63;;;;;;;;;;4933164;29;20335;-95
2024/04/02 08:57:09;;;;;;;24.65;23.23;;;;;;;;;;4977729;28;19913;-94
2024/04/02 08:59:36;;;;;;;21.83;20.52;;;;;;;;;;4960812;28;20114;-92
2024/04/02 09:02:03;;;;;;;23.75;22.42;;;;;;;;;;4979764;28;20123;-91
2024/04/02 09:04:32;;;;;;;21.20;20.00;;;;;;;;;;4980895;28;20033;-93
2024/04/02 09:06:58;;;;;;;20.38;19.23;;;;;;;;;;4982002;28;20038;-92
2024/04/02 09:09:25;;;;;;;18.30;17.17;;;;;;;;;;5002203;28;20025;-93
2024/04/02 09:11:51;;;;;;;22.77;21.42;;;;;;;;;;5060995;23;20063;-92
2024/04/02 09:14:18;;;;;;;22.38;21.08;;;;;;;;;;4943616;29;20024;-94
2024/04/02 09:16:44;;;;;;;22.20;20.98;;;;;;;;;;4943344;29;20046;-92
2024/04/02 09:19:13;;;;;;;20.73;19.50;;;;;;;;;;4945841;29;20043;-96
2024/04/02 09:21:47;;;;;;;25.08;23.60;;;;;;;;;;4962666;28;20054;-95
2024/04/02 09:24:13;;;;;;;22.65;21.38;;;;;;;;;;4946037;28;20049;-94
2024/04/02 09:26:39;;;;;;;25.38;23.95;;;;;;;;;;4960527;28;20030;-93
2024/04/02 09:29:06;;;;;;;25.02;23.50;;;;;;;;;;4960559;28;20030;-94
2024/04/02 09:31:32;;;;;;;26.90;25.30;;;;;;;;;;4959841;28;20050;-94
2024/04/02 09:33:59;;;;;;;29.48;27.83;;;;;;;;;;4923014;29;20035;-95
2024/04/02 09:36:35;;;;;;;25.27;23.88;;;;;;;;;;4921862;29;20039;-94
2024/04/02 09:39:04;;;;;;;28.13;26.52;;;;;;;;;;4921428;29;20140;-93
2024/04/02 09:41:35;;;;;;;24.45;22.95;;;;;;;;;;4921812;29;20030;-95
2024/04/02 09:44:02;;;;;;;26.40;25.00;;;;;;;;;;4921231;29;20062;-94
2024/04/02 09:46:29;;;;;;;22.20;21.00;;;;;;;;;;4922050;29;20476;-93
2024/04/02 09:48:56;;;;;;;21.70;20.50;;;;;;;;;;4921282;29;20031;-93
2024/04/02 09:51:25;;;;;;;22.65;21.27;;;;;;;;;;4921354;29;20086;-92
2024/04/02 09:53:52;;;;;;;22.23;21.02;;;;;;;;;;4921183;29;20036;-93
2024/04/02 09:56:18;;;;;;;23.20;21.88;;;;;;;;;;4921332;29;20027;-91
2024/04/02 09:58:46;;;;;;;34.15;32.25;;;;;;;;;;4951274;28;20058;-93
2024/04/02 10:01:14;;;;;;;29.58;27.95;;;;;;;;;;4961940;28;20057;-94
2024/04/02 10:03:43;;;;;;;24.42;22.98;;;;;;;;;;4967814;28;20019;-93
2024/04/02 10:06:09;;;;;;;41.92;39.67;;;;;;;;;;4976246;28;20026;-92
2024/04/02 10:08:36;;;;;;;42.38;40.13;;;;;;;;;;4962455;28;20046;-96
2024/04/02 10:11:05;;;;;;;37.35;35.25;;;;;;;;;;4966136;28;20402;-96
2024/04/02 10:14:09;;;;;;;23.08;21.67;;;;;;;;;;4978042;28;20033;-92
2024/04/02 10:16:36;;;;;;;34.93;33.00;;;;;;;;;;4978712;28;20030;-93
2024/04/02 10:19:02;;;;;;;34.50;32.63;;;;;;;;;;4978500;28;20353;-89
2024/04/02 10:21:31;;;;;;;24.77;23.27;;;;;;;;;;4977933;28;20034;-90
2024/04/02 10:23:58;;;;;;;29.92;27.95;;;;;;;;;;4978152;28;20026;-94
2024/04/02 10:26:30;;;;;;;24.15;22.85;;;;;;;;;;4978152;28;20081;-89
2024/04/02 10:28:56;;;;;;;25.33;23.80;;;;;;;;;;4978425;28;20503;-91
2024/04/02 10:31:22;;;;;;;27.00;25.52;;;;;;;;;;4977883;28;20034;-92
2024/04/02 10:33:50;;;;;;;26.45;24.90;;;;;;;;;;4978512;28;20049;-94
2024/04/02 10:36:20;;;;;;;24.90;23.45;;;;;;;;;;4978575;28;20072;-96
2024/04/02 10:47:50;;;;;;;39.67;37.60;;;;;;;;;;4978338;28;20069;-92
2024/04/02 10:50:23;;;;;;;39.47;37.30;;;;;;;;;;5371556;23;20047;-95
2024/04/02 10:52:53;;;;;;;34.38;32.40;;;;;;;;;;4978071;28;20038;-96
2024/04/02 10:55:28;;;;;;;39.85;37.67;;;;;;;;;;4984717;28;20034;-96
2024/04/02 10:57:55;;;;;;;30.15;28.55;;;;;;;;;;4992229;28;20058;-92
2024/04/02 11:00:21;;;;;;;26.10;24.42;;;;;;;;;;4978388;28;20041;-93
2024/04/02 11:02:48;;;;;;;26.70;25.25;;;;;;;;;;4978498;28;20064;-92
2024/04/02 11:05:20;;;;;;;27.27;25.58;;;;;;;;;;4986812;28;20046;-95
2024/04/02 11:07:46;;;;;;;26.77;25.30;;;;;;;;;;5098520;23;20058;-96
2024/04/02 11:10:13;;;;;;;22.60;21.30;;;;;;;;;;4960540;28;20038;-93
2024/04/02 11:12:42;;;;;;;23.35;22.02;;;;;;;;;;4959642;28;20027;-95
2024/04/02 11:15:11;;;;;;;27.63;25.92;;;;;;;;;;4961451;28;20031;-95
2024/04/02 11:17:38;;;;;;;20.00;18.83;;;;;;;;;;4988832;28;20019;-94
2024/04/02 11:20:11;;;;;;;25.08;23.65;;;;;;;;;;4998460;28;20050;-92
2024/04/02 11:25:22;;;;;;;23.25;21.90;;;;;;;;;;5016557;28;20045;-92
2024/04/02 11:28:04;;;;;;;27.38;25.88;;;;;;;;;;4997255;28;20006;-96
2024/04/02 11:30:30;;;;;;;29.58;27.88;;;;;;;;;;4965758;28;20525;-93
2024/04/02 11:32:56;;;;;;;37.90;35.85;;;;;;;;;;4977603;28;20033;-93
2024/04/02 11:35:22;;;;;;;32.13;30.35;;;;;;;;;;4977872;28;20505;-94
2024/04/02 11:37:49;;;;;;;28.35;26.65;;;;;;;;;;4995129;28;20387;-93
2024/04/02 11:40:18;;;;;;;23.33;21.73;;;;;;;;;;4977638;28;20026;-93
2024/04/02 11:45:48;;;;;;;54.67;51.85;;;;;;;;;;5013880;28;20069;-92
2024/04/02 11:48:14;;;;;;;22.52;21.08;;;;;;;;;;4982788;28;20117;-92
2024/04/02 11:50:40;;;;;;;24.73;23.27;;;;;;;;;;4977662;28;20038;-92
2024/04/02 11:53:07;;;;;;;26.10;24.60;;;;;;;;;;4977246;28;20058;-92
2024/04/02 11:55:33;;;;;;;22.70;21.27;;;;;;;;;;4977054;28;20524;-92
2024/04/02 12:00:43;;;;;;;24.33;22.92;;;;;;;;;;4999439;28;20448;-95
2024/04/02 12:03:10;;;;;;;27.00;25.40;;;;;;;;;;4980403;28;20027;-93
2024/04/02 12:05:36;;;;;;;26.27;24.65;;;;;;;;;;4981510;28;20038;-94
2024/04/02 12:08:02;;;;;;;24.75;23.33;;;;;;;;;;4988848;28;20042;-93
2024/04/02 12:10:31;;;;;;;23.83;22.38;;;;;;;;;;4976755;28;20038;-96
2024/04/02 12:12:57;;;;;;;24.17;22.70;;;;;;;;;;4977190;28;20085;-92
2024/04/02 12:15:23;;;;;;;23.80;22.40;;;;;;;;;;4962670;28;20035;-92
2024/04/02 12:17:50;;;;;;;23.55;22.27;;;;;;;;;;4960844;28;20118;-92
2024/04/02 12:20:16;;;;;;;24.58;23.17;;;;;;;;;;4961667;28;20317;-93
2024/04/02 12:22:42;;;;;;;23.60;22.30;;;;;;;;;;4961174;28;20097;-93
2024/04/02 12:25:08;;;;;;;25.17;23.75;;;;;;;;;;4961130;28;20034;-92
2024/04/02 12:27:34;;;;;;;25.50;24.00;;;;;;;;;;4960939;28;20101;-91
2024/04/02 12:30:00;;;;;;;39.35;37.25;;;;;;;;;;4961072;28;20046;-92
2024/04/02 12:35:38;;;;;;;39.55;37.45;;;;;;;;;;4948929;28;20122;-92
2024/04/02 12:38:04;;;;;;;42.85;40.63;;;;;;;;;;4960499;28;20035;-93
2024/04/02 12:40:38;;;;;;;41.38;39.25;;;;;;;;;;4967386;28;20122;-90
2024/04/02 12:43:05;;;;;;;36.53;34.63;;;;;;;;;;4964307;28;20073;-93
2024/04/02 12:45:31;;;;;;;41.72;39.47;;;;;;;;;;4964273;28;20027;-92
2024/04/02 12:47:57;;;;;;;24.52;22.98;;;;;;;;;;4963089;28;20027;-93
2024/04/02 12:50:23;;;;;;;28.52;26.92;;;;;;;;;;4962078;28;20035;-93
2024/04/02 12:52:49;;;;;;;27.83;26.20;;;;;;;;;;4964073;28;20027;-93
2024/04/02 12:55:16;;;;;;;28.00;26.50;;;;;;;;;;4966830;28;20482;-94
2024/04/02 12:57:45;;;;;;;27.33;25.40;;;;;;;;;;4963378;28;20027;-95
2024/04/02 13:00:11;;;;;;;25.17;23.77;;;;;;;;;;4961684;28;20064;-94
2024/04/02 13:02:37;;;;;;;25.90;24.38;;;;;;;;;;4962372;28;20036;-92
2024/04/02 13:05:04;;;;;;;30.17;28.48;;;;;;;;;;4962636;28;20387;-94
2024/04/02 13:07:40;;;;;;;25.55;24.15;;;;;;;;;;4961759;28;20038;-93
2024/04/02 13:10:06;;;;;;;25.15;23.75;;;;;;;;;;4976809;28;20623;-94
2024/04/02 13:12:32;;;;;;;32.80;31.00;;;;;;;;;;4979507;28;20088;-93
2024/04/02 13:14:58;;;;;;;24.95;23.52;;;;;;;;;;4979652;28;20426;-94
2024/04/02 13:17:24;;;;;;;24.20;22.88;;;;;;;;;;4970658;28;20475;-90
2024/04/02 13:19:50;;;;;;;22.25;21.02;;;;;;;;;;4959460;28;20101;-87
2024/04/02 13:22:17;;;;;;;22.25;21.02;;;;;;;;;;4976961;28;20027;-89
2024/04/02 13:24:43;;;;;;;20.75;19.55;;;;;;;;;;4961987;28;20130;-89
2024/04/02 13:27:09;;;;;;;23.58;22.20;;;;;;;;;;4984872;28;20096;-89
2024/04/02 13:29:35;;;;;;;22.13;20.83;;;;;;;;;;4979258;28;20026;-92
2024/04/02 13:32:02;;;;;;;23.92;22.58;;;;;;;;;;4978859;28;20030;-90
2024/04/02 13:34:28;;;;;;;24.58;23.27;;;;;;;;;;4978800;28;20027;-91
2024/04/02 13:36:55;;;;;;;20.02;18.95;;;;;;;;;;4969418;28;20046;-89
2024/04/02 13:39:24;;;;;;;22.60;21.33;;;;;;;;;;4972052;28;20034;-92
2024/04/02 13:41:50;;;;;;;21.90;20.52;;;;;;;;;;4959800;28;20035;-91
2024/04/02 13:44:16;;;;;;;19.85;18.77;;;;;;;;;;4959288;28;20027;-92
2024/04/02 13:46:42;;;;;;;21.23;20.05;;;;;;;;;;4959916;28;20054;-92
2024/04/02 13:49:08;;;;;;;17.98;16.80;;;;;;;;;;4960605;28;20029;-93
2024/04/02 13:51:34;;;;;;;21.17;19.98;;;;;;;;;;4959113;28;20133;-92
2024/04/02 13:54:01;;;;;;;20.13;18.92;;;;;;;;;;4959373;28;20018;-92
2024/04/02 13:56:27;;;;;;;20.25;19.15;;;;;;;;;;4964299;28;20022;-89
2024/04/02 13:58:53;;;;;;;20.38;19.23;;;;;;;;;;4978517;28;20018;-87
2024/04/02 14:01:19;;;;;;;19.98;18.85;;;;;;;;;;4995838;28;20053;-92
2024/04/02 14:03:45;;;;;;;20.73;19.50;;;;;;;;;;4978742;28;20031;-93
2024/04/02 14:06:12;;;;;;;25.17;23.70;;;;;;;;;;4978464;28;20026;-93
2024/04/02 14:09:00;;;;;;;20.58;19.38;;;;;;;;;;4964965;28;20047;-91
2024/04/02 14:11:26;;;;;;;22.08;20.77;;;;;;;;;;4957075;29;20074;-93
2024/04/02 14:13:52;;;;;;;23.13;21.92;;;;;;;;;;4944156;29;20052;-93
2024/04/02 14:16:18;;;;;;;24.35;23.05;;;;;;;;;;4946425;28;20043;-92
2024/04/02 14:18:45;;;;;;;25.08;23.67;;;;;;;;;;4966870;28;20030;-91
2024/04/02 14:27:22;;;;;;;20.67;19.58;;;;;;;;;;4956598;29;20468;-92
2024/04/02 14:29:48;;;;;;;17.60;16.67;;;;;;;;;;4939998;29;20030;-92
2024/04/02 14:32:14;;;;;;;17.20;16.30;;;;;;;;;;4941677;29;20035;-90
2024/04/02 14:34:43;;;;;;;23.67;22.25;;;;;;;;;;4939523;29;20468;-91
2024/04/02 14:37:09;;;;;;;19.35;18.25;;;;;;;;;;4939135;29;20045;-90
2024/04/02 14:39:35;;;;;;;21.27;20.10;;;;;;;;;;4954682;28;20030;-91
2024/04/02 14:42:02;;;;;;;23.83;22.50;;;;;;;;;;4958537;28;20027;-91
2024/04/02 14:44:31;;;;;;;18.55;17.55;;;;;;;;;;4958447;28;20403;-90
2024/04/02 14:46:57;;;;;;;19.50;18.10;;;;;;;;;;4958220;28;20026;-91
2024/04/02 14:49:26;;;;;;;18.17;17.10;;;;;;;;;;4958388;28;20030;-90
2024/04/02 14:51:52;;;;;;;20.52;19.42;;;;;;;;;;4958690;28;20093;-93
2024/04/02 14:54:18;;;;;;;20.25;19.15;;;;;;;;;;4958290;28;20039;-92
2024/04/02 14:57:00;;;;;;;20.67;19.52;;;;;;;;;;4958259;28;20041;-94
2024/04/02 14:59:32;;;;;;;22.58;20.90;;;;;;;;;;4958993;28;20034;-92
2024/04/02 15:02:04;;;;;;;18.60;17.50;;;;;;;;;;4958850;28;20055;-93
2024/04/02 15:04:35;;;;;;;20.13;19.03;;;;;;;;;;4958408;28;20031;-93
2024/04/02 15:07:15;;;;;;;18.95;17.85;;;;;;;;;;4977852;28;20031;-94
2024/04/02 15:09:41;;;;;;;20.85;19.75;;;;;;;;;;4975512;28;20065;-94
2024/04/02 15:12:08;;;;;;;17.30;16.40;;;;;;;;;;4979143;28;20038;-94
2024/04/02 15:14:34;;;;;;;18.27;17.27;;;;;;;;;;4979082;28;20026;-94